createdAt,value
2016-12-17T00:00:37.378Z,82.07
2016-12-17T00:01:47.177Z,83.02
2016-12-17T00:02:57.052Z,82.54
2016-12-17T00:04:06.866Z,82.92
2016-12-17T00:05:16.661Z,82.35
2016-12-17T00:06:26.448Z,82.64
2016-12-17T00:07:35.925Z,82.83
2016-12-17T00:08:45.851Z,82.83
2016-12-17T00:09:55.744Z,82.83
2016-12-17T00:11:05.599Z,82.54
2016-12-17T00:12:15.143Z,82.17
2016-12-17T00:13:24.942Z,81.98
2016-12-17T00:14:34.743Z,82.35
2016-12-17T00:15:44.560Z,82.17
2016-12-17T00:16:54.044Z,82.35
2016-12-17T00:18:03.231Z,82.35
2016-12-17T00:19:12.462Z,82.26
2016-12-17T00:20:22.243Z,82.26
2016-12-17T00:21:31.945Z,82.26
2016-12-17T00:22:41.762Z,82.07
2016-12-17T00:23:51.548Z,81.88
2016-12-17T00:25:00.728Z,81.79
2016-12-17T00:26:10.238Z,82.07
2016-12-17T00:27:19.829Z,82.35
2016-12-17T00:28:29.312Z,82.07
2016-12-17T00:29:39.135Z,81.88
2016-12-17T00:30:48.963Z,81.98
2016-12-17T00:31:58.848Z,81.7
2016-12-17T00:33:08.737Z,81.6
2016-12-17T00:34:18.525Z,81.98
2016-12-17T00:35:28.336Z,81.98
2016-12-17T00:36:38.206Z,81.13
2016-12-17T00:37:48.052Z,81.51
2016-12-17T00:38:57.901Z,81.22
2016-12-17T00:40:07.505Z,81.79
2016-12-17T00:41:17.339Z,81.98
2016-12-17T00:42:27.140Z,82.17
2016-12-17T00:43:36.934Z,81.6
2016-12-17T00:44:46.434Z,81.6
2016-12-17T00:45:55.939Z,81.22
2016-12-17T00:47:05.748Z,81.13
2016-12-17T00:48:15.552Z,81.32
2016-12-17T00:49:25.040Z,81.51
2016-12-17T00:50:34.499Z,81.13
2016-12-17T00:51:43.700Z,81.32
2016-12-17T00:52:53.189Z,81.6
2016-12-17T00:54:03.010Z,81.13
2016-12-17T00:55:12.533Z,80.94
2016-12-17T00:56:22.024Z,80.84
2016-12-17T00:57:31.828Z,80.94
2016-12-17T00:58:41.804Z,80.65
2016-12-17T00:59:51.644Z,80.56
2016-12-17T01:01:01.121Z,80.94
2016-12-17T01:02:10.758Z,80.75
2016-12-17T01:03:20.543Z,81.22
2016-12-17T01:04:30.368Z,81.03
2016-12-17T01:05:40.147Z,80.84
2016-12-17T01:06:49.951Z,81.6
2016-12-17T01:07:59.147Z,80.75
2016-12-17T01:09:08.649Z,80.75
2016-12-17T01:10:18.171Z,81.22
2016-12-17T01:11:28.034Z,80.65
2016-12-17T01:12:37.819Z,80.94
2016-12-17T01:13:47.494Z,80.84
2016-12-17T01:14:57.278Z,80.84
2016-12-17T01:16:07.101Z,81.22
2016-12-17T01:17:16.270Z,80.75
2016-12-17T01:18:25.790Z,81.03
2016-12-17T01:19:35.293Z,81.13
2016-12-17T01:20:44.778Z,80.75
2016-12-17T01:21:54.557Z,80.65
2016-12-17T01:23:04.354Z,80.94
2016-12-17T01:24:14.141Z,81.13
2016-12-17T01:25:23.948Z,81.03
2016-12-17T01:26:33.781Z,80.84
2016-12-17T01:27:43.556Z,80.75
2016-12-17T01:28:53.187Z,81.03
2016-12-17T01:30:02.656Z,81.03
2016-12-17T01:31:12.133Z,81.41
2016-12-17T01:32:22.001Z,81.22
2016-12-17T01:33:31.792Z,81.03
2016-12-17T01:34:41.574Z,80.84
2016-12-17T01:35:50.757Z,80.94
2016-12-17T01:37:00.568Z,80.75
2016-12-17T01:38:10.359Z,80.84
2016-12-17T01:39:20.175Z,80.84
2016-12-17T01:40:29.471Z,81.7
2016-12-17T01:41:38.965Z,81.41
2016-12-17T01:42:48.748Z,81.51
2016-12-17T01:43:58.217Z,81.6
2016-12-17T01:45:08.117Z,81.32
2016-12-17T01:46:17.933Z,81.88
2016-12-17T01:47:27.416Z,81.88
2016-12-17T01:48:37.195Z,81.7
2016-12-17T01:49:46.675Z,82.07
2016-12-17T01:50:55.875Z,82.45
2016-12-17T01:52:05.712Z,82.26
2016-12-17T01:53:15.547Z,82.35
2016-12-17T01:54:24.412Z,82.26
2016-12-17T01:55:34.213Z,81.98
2016-12-17T01:56:44.026Z,81.98
2016-12-17T01:57:53.505Z,81.98
2016-12-17T01:59:03.291Z,82.45
2016-12-17T02:00:13.115Z,82.26
2016-12-17T02:01:22.954Z,82.35
2016-12-17T02:02:32.882Z,82.26
2016-12-17T02:03:42.351Z,82.26
2016-12-17T02:04:52.129Z,82.35
2016-12-17T02:06:01.595Z,82.83
2016-12-17T02:07:10.757Z,82.92
2016-12-17T02:08:20.267Z,82.64
2016-12-17T02:09:30.075Z,82.92
2016-12-17T02:10:38.945Z,81.98
2016-12-17T02:11:48.434Z,82.54
2016-12-17T02:12:57.914Z,82.07
2016-12-17T02:14:07.744Z,82.17
2016-12-17T02:15:17.547Z,82.26
2016-12-17T02:16:27.248Z,81.88
2016-12-17T02:17:37.054Z,81.98
2016-12-17T02:18:46.530Z,82.07
2016-12-17T02:19:56.316Z,82.35
2016-12-17T02:21:05.546Z,82.26
2016-12-17T02:22:15.320Z,82.17
2016-12-17T02:23:25.109Z,81.98
2016-12-17T02:24:34.628Z,81.7
2016-12-17T02:25:44.492Z,81.98
2016-12-17T02:26:54.267Z,82.07
2016-12-17T02:28:03.765Z,82.07
2016-12-17T02:29:12.933Z,81.7
2016-12-17T02:30:22.719Z,81.88
2016-12-17T02:31:32.191Z,81.88
2016-12-17T02:32:41.985Z,81.88
2016-12-17T02:33:51.532Z,81.88
2016-12-17T02:35:01.335Z,81.88
2016-12-17T02:36:11.120Z,81.88
2016-12-17T02:37:20.926Z,81.88
2016-12-17T02:38:30.738Z,81.98
2016-12-17T02:39:40.323Z,81.79
2016-12-17T02:40:49.799Z,82.07
2016-12-17T02:41:59.312Z,82.35
2016-12-17T02:43:09.180Z,82.26
2016-12-17T02:44:18.958Z,82.45
2016-12-17T02:45:28.469Z,82.03
2016-12-17T02:46:37.964Z,82.22
2016-12-17T02:47:47.448Z,82.6
2016-12-17T02:48:57.236Z,82.22
2016-12-17T02:50:06.737Z,82.03
2016-12-17T02:51:16.546Z,81.84
2016-12-17T02:52:26.487Z,82.22
2016-12-17T02:53:36.335Z,82.41
2016-12-17T02:54:46.140Z,82.22
2016-12-17T02:55:55.930Z,82.22
2016-12-17T02:57:05.459Z,82.03
2016-12-17T02:58:14.950Z,82.6
2016-12-17T02:59:24.479Z,82.6
2016-12-17T03:00:34.092Z,82.03
2016-12-17T03:01:43.869Z,81.84
2016-12-17T03:02:53.655Z,82.03
2016-12-17T03:04:03.485Z,82.5
2016-12-17T03:05:13.298Z,82.12
2016-12-17T03:06:23.106Z,81.93
2016-12-17T03:07:32.902Z,82.22
2016-12-17T03:08:42.740Z,82.5
2016-12-17T03:09:52.729Z,82.22
2016-12-17T03:11:02.527Z,81.84
2016-12-17T03:12:12.363Z,82.5
2016-12-17T03:13:22.149Z,82.69
2016-12-17T03:14:31.646Z,82.88
2016-12-17T03:15:41.480Z,82.88
2016-12-17T03:16:50.963Z,82.6
2016-12-17T03:18:00.773Z,82.88
2016-12-17T03:19:10.565Z,82.69
2016-12-17T03:20:20.194Z,82.79
2016-12-17T03:21:30.027Z,82.88
2016-12-17T03:22:39.823Z,82.69
2016-12-17T03:23:49.280Z,82.31
2016-12-17T03:24:58.757Z,82.31
2016-12-17T03:26:08.605Z,82.31
2016-12-17T03:27:18.398Z,82.22
2016-12-17T03:28:27.329Z,82.12
2016-12-17T03:29:37.135Z,82.6
2016-12-17T03:30:46.979Z,82.41
2016-12-17T03:31:56.777Z,82.22
2016-12-17T03:33:06.327Z,82.5
2016-12-17T03:34:15.845Z,82.5
2016-12-17T03:35:25.628Z,81.93
2016-12-17T03:36:35.108Z,82.22
2016-12-17T03:37:44.598Z,82.12
2016-12-17T03:38:53.824Z,82.12
2016-12-17T03:40:03.613Z,82.12
2016-12-17T03:41:13.085Z,82.22
2016-12-17T03:42:22.576Z,82.41
2016-12-17T03:43:31.784Z,81.93
2016-12-17T03:44:41.270Z,82.31
2016-12-17T03:45:51.052Z,81.84
2016-12-17T03:47:00.286Z,81.84
2016-12-17T03:48:10.076Z,82.03
2016-12-17T03:49:19.552Z,81.84
2016-12-17T03:50:29.063Z,81.65
2016-12-17T03:51:38.531Z,82.12
2016-12-17T03:52:48.315Z,81.93
2016-12-17T03:53:58.090Z,82.03
2016-12-17T03:55:07.865Z,81.46
2016-12-17T03:56:17.033Z,81.37
2016-12-17T03:57:26.229Z,81.37
2016-12-17T03:58:36.034Z,81.65
2016-12-17T03:59:45.927Z,81.74
2016-12-17T04:00:55.709Z,81.93
2016-12-17T04:02:05.521Z,81.84
2016-12-17T04:03:15.000Z,81.93
2016-12-17T04:04:24.511Z,81.84
2016-12-17T04:05:34.323Z,81.93
2016-12-17T04:06:44.099Z,81.65
2016-12-17T04:07:53.893Z,81.65
2016-12-17T04:09:03.752Z,82.03
2016-12-17T04:10:13.220Z,81.65
2016-12-17T04:11:23.014Z,81.93
2016-12-17T04:12:32.858Z,81.93
2016-12-17T04:13:42.643Z,82.03
2016-12-17T04:14:52.528Z,81.74
2016-12-17T04:16:02.318Z,81.84
2016-12-17T04:17:12.137Z,81.84
2016-12-17T04:18:21.965Z,81.84
2016-12-17T04:19:31.795Z,81.74
2016-12-17T04:20:41.279Z,81.74
2016-12-17T04:21:50.748Z,81.46
2016-12-17T04:23:00.259Z,81.27
2016-12-17T04:24:10.067Z,81.46
2016-12-17T04:25:19.873Z,81.46
2016-12-17T04:26:29.387Z,81.84
2016-12-17T04:27:39.200Z,81.79
2016-12-17T04:28:48.999Z,81.88
2016-12-17T04:29:58.468Z,81.98
2016-12-17T04:31:08.266Z,82.07
2016-12-17T04:32:18.068Z,81.22
2016-12-17T04:33:27.874Z,81.6
2016-12-17T04:34:37.363Z,81.13
2016-12-17T04:35:47.157Z,81.41
2016-12-17T04:36:56.939Z,80.75
2016-12-17T04:38:06.765Z,81.13
2016-12-17T04:39:16.532Z,80.94
2016-12-17T04:40:26.330Z,80.75
2016-12-17T04:41:35.799Z,80.65
2016-12-17T04:42:44.958Z,80.65
2016-12-17T04:43:54.619Z,80.65
2016-12-17T04:45:04.401Z,80.18
2016-12-17T04:46:14.175Z,80.18
2016-12-17T04:47:23.656Z,80.27
2016-12-17T04:48:33.440Z,80.27
2016-12-17T04:49:42.634Z,80.75
2016-12-17T04:50:52.121Z,80.08
2016-12-17T04:52:02.067Z,80.37
2016-12-17T04:53:11.522Z,80.46
2016-12-17T04:54:21.014Z,80.94
2016-12-17T04:56:02.680Z,80.65
2016-12-17T04:57:11.947Z,80.94
2016-12-17T04:58:21.728Z,79.9
2016-12-17T04:59:30.924Z,80.84
2016-12-17T05:00:40.325Z,80.27
2016-12-17T05:01:49.792Z,80.94
2016-12-17T05:02:58.970Z,80.65
2016-12-17T05:04:08.538Z,80.37
2016-12-17T05:05:18.334Z,80.37
2016-12-17T05:06:28.235Z,80.37
2016-12-17T05:07:38.045Z,80.08
2016-12-17T05:08:47.515Z,80.27
2016-12-17T05:09:57.044Z,80.37
2016-12-17T05:11:06.912Z,80.46
2016-12-17T05:12:16.701Z,80.37
2016-12-17T05:13:26.527Z,80.37
2016-12-17T05:14:36.062Z,80.46
2016-12-17T05:15:45.860Z,80.46
2016-12-17T05:16:55.687Z,80.46
2016-12-17T05:18:05.488Z,80.37
2016-12-17T05:19:14.969Z,80.46
2016-12-17T05:20:24.471Z,79.99
2016-12-17T05:21:34.534Z,80.08
2016-12-17T05:22:44.044Z,79.71
2016-12-17T05:23:53.841Z,79.8
2016-12-17T05:25:03.574Z,79.61
2016-12-17T05:26:13.406Z,79.43
2016-12-17T05:27:22.892Z,79.52
2016-12-17T05:28:32.475Z,79.33
2016-12-17T05:29:41.939Z,79.52
2016-12-17T05:30:51.750Z,79.61
2016-12-17T05:32:01.236Z,79.52
2016-12-17T05:33:11.129Z,79.61
2016-12-17T05:34:20.698Z,79.52
2016-12-17T05:35:30.171Z,79.52
2016-12-17T05:36:39.958Z,79.61
2016-12-17T05:37:49.817Z,79.71
2016-12-17T05:38:59.288Z,79.71
2016-12-17T05:40:09.131Z,79.71
2016-12-17T05:41:18.901Z,79.9
2016-12-17T05:42:28.693Z,79.9
2016-12-17T05:43:37.869Z,79.99
2016-12-17T05:44:47.701Z,80.37
2016-12-17T05:45:56.885Z,80.37
2016-12-17T05:47:06.359Z,79.61
2016-12-17T05:48:16.195Z,79.99
2016-12-17T05:49:25.710Z,79.9
2016-12-17T05:50:34.871Z,80.46
2016-12-17T05:51:44.392Z,80.27
2016-12-17T05:52:54.169Z,80.46
2016-12-17T05:54:03.842Z,80.37
2016-12-17T05:55:13.652Z,79.99
2016-12-17T05:56:23.135Z,79.61
2016-12-17T05:57:32.380Z,79.99
2016-12-17T05:58:41.859Z,79.61
2016-12-17T05:59:51.787Z,79.8
2016-12-17T06:01:00.941Z,79.99
2016-12-17T06:02:10.448Z,79.61
2016-12-17T06:03:20.233Z,79.52
2016-12-17T06:04:29.834Z,79.61
2016-12-17T06:05:39.701Z,79.99
2016-12-17T06:06:49.162Z,79.8
2016-12-17T06:07:58.639Z,79.52
2016-12-17T06:09:08.165Z,79.33
2016-12-17T06:10:17.725Z,79.9
2016-12-17T06:11:27.237Z,79.9
2016-12-17T06:12:37.050Z,79.9
2016-12-17T06:13:46.851Z,79.8
2016-12-17T06:14:56.117Z,79.9
2016-12-17T06:16:05.580Z,79.9
2016-12-17T06:17:15.517Z,79.71
2016-12-17T06:18:24.693Z,79.71
2016-12-17T06:19:34.174Z,79.8
2016-12-17T06:20:43.983Z,79.9
2016-12-17T06:21:53.758Z,79.9
2016-12-17T06:23:03.259Z,80.37
2016-12-17T06:24:13.067Z,80.27
2016-12-17T06:25:22.536Z,80.37
2016-12-17T06:26:32.320Z,80.18
2016-12-17T06:27:41.507Z,80.37
2016-12-17T06:28:50.821Z,80.46
2016-12-17T06:30:00.614Z,80.27
2016-12-17T06:31:10.403Z,80.18
2016-12-17T06:32:20.279Z,80.18
2016-12-17T06:33:30.082Z,80.46
2016-12-17T06:34:39.867Z,79.8
2016-12-17T06:35:49.707Z,79.71
2016-12-17T06:36:59.337Z,79.33
2016-12-17T06:38:09.145Z,79.33
2016-12-17T06:39:18.613Z,79.71
2016-12-17T06:40:28.406Z,79.8
2016-12-17T06:41:38.190Z,79.61
2016-12-17T06:42:47.995Z,79.43
2016-12-17T06:43:57.835Z,79.61
2016-12-17T06:45:07.652Z,79.43
2016-12-17T06:46:17.600Z,79.33
2016-12-17T06:47:26.814Z,79.43
2016-12-17T06:48:36.598Z,79.33
2016-12-17T06:49:46.068Z,79.52
2016-12-17T06:50:55.903Z,79.8
2016-12-17T06:52:05.420Z,78.86
2016-12-17T06:53:15.313Z,79.05
2016-12-17T06:54:25.103Z,78.95
2016-12-17T06:55:34.898Z,78.95
2016-12-17T06:56:44.402Z,78.76
2016-12-17T06:57:53.892Z,79.05
2016-12-17T06:59:03.704Z,78.67
2016-12-17T07:00:12.954Z,78.67
2016-12-17T07:01:22.744Z,78.67
2016-12-17T07:02:31.914Z,78.95
2016-12-17T07:03:41.797Z,79.05
2016-12-17T07:04:51.320Z,78.95
2016-12-17T07:06:01.095Z,78.95
2016-12-17T07:07:10.882Z,78.86
2016-12-17T07:08:20.664Z,78.8
2016-12-17T07:09:30.152Z,79.05
2016-12-17T07:10:40.012Z,78.86
2016-12-17T07:11:49.493Z,78.61
2016-12-17T07:12:59.053Z,78.42
2016-12-17T07:14:08.853Z,78.71
2016-12-17T07:15:18.343Z,78.67
2016-12-17T07:16:28.133Z,78.67
2016-12-17T07:17:37.357Z,79.05
2016-12-17T07:18:46.857Z,79.05
2016-12-17T07:19:56.351Z,78.86
2016-12-17T07:21:05.833Z,78.95
2016-12-17T07:22:15.302Z,79.05
2016-12-17T07:23:25.164Z,78.95
2016-12-17T07:24:34.639Z,78.95
2016-12-17T07:25:44.431Z,78.86
2016-12-17T07:26:53.300Z,78.67
2016-12-17T07:28:03.086Z,78.99
2016-12-17T07:29:12.607Z,79.05
2016-12-17T07:30:22.413Z,79.09
2016-12-17T07:31:32.210Z,79.09
2016-12-17T07:32:42.002Z,78.9
2016-12-17T07:33:51.805Z,79.09
2016-12-17T07:35:01.351Z,78.61
2016-12-17T07:36:10.857Z,78.8
2016-12-17T07:37:20.017Z,78.67
2016-12-17T07:38:29.800Z,78.61
2016-12-17T07:39:38.989Z,78.67
2016-12-17T07:40:48.626Z,78.39
2016-12-17T07:41:58.437Z,78.67
2016-12-17T07:43:08.211Z,78.39
2016-12-17T07:44:17.997Z,78.58
2016-12-17T07:45:27.504Z,78.48
2016-12-17T07:46:37.044Z,78.86
2016-12-17T07:47:46.530Z,78.86
2016-12-17T07:48:56.003Z,78.58
2016-12-17T07:50:05.478Z,78.58
2016-12-17T07:51:15.481Z,78.58
2016-12-17T07:52:25.289Z,78.58
2016-12-17T07:53:35.087Z,78.48
2016-12-17T07:54:44.930Z,78.67
2016-12-17T07:55:54.726Z,78.33
2016-12-17T07:57:04.273Z,78.14
2016-12-17T07:58:13.915Z,78.14
2016-12-17T07:59:23.762Z,78.05
2016-12-17T08:00:32.931Z,78.14
2016-12-17T08:01:42.726Z,78.14
2016-12-17T08:02:52.545Z,78.23
2016-12-17T08:04:02.366Z,77.76
2016-12-17T08:05:11.899Z,77.76
2016-12-17T08:06:21.707Z,77.95
2016-12-17T08:07:31.303Z,77.95
2016-12-17T08:08:40.470Z,77.67
2016-12-17T08:09:50.373Z,77.48
2016-12-17T08:11:00.183Z,77.48
2016-12-17T08:12:09.996Z,77.48
2016-12-17T08:13:19.219Z,77.39
2016-12-17T08:14:28.709Z,77.39
2016-12-17T08:15:38.523Z,77.48
2016-12-17T08:16:48.323Z,77.67
2016-12-17T08:17:57.789Z,77.76
2016-12-17T08:19:06.953Z,76.82
2016-12-17T08:20:16.533Z,76.82
2016-12-17T08:21:26.012Z,77.2
2016-12-17T08:22:35.491Z,76.72
2016-12-17T08:23:45.070Z,76.72
2016-12-17T08:24:54.929Z,76.76
2016-12-17T08:26:04.911Z,76.76
2016-12-17T08:27:14.404Z,76.53
2016-12-17T08:28:24.190Z,76.29
2016-12-17T08:29:33.971Z,76.19
2016-12-17T08:30:43.758Z,76.67
2016-12-17T08:31:53.315Z,76.29
2016-12-17T08:33:02.601Z,76.1
2016-12-17T08:34:12.461Z,76.1
2016-12-17T08:35:22.256Z,75.43
2016-12-17T08:36:32.081Z,75.34
2016-12-17T08:37:41.931Z,75.72
2016-12-17T08:38:51.726Z,75.43
2016-12-17T08:40:01.222Z,75.72
2016-12-17T08:41:10.690Z,75.62
2016-12-17T08:42:20.488Z,75.81
2016-12-17T08:43:29.992Z,75.62
2016-12-17T08:44:39.228Z,75.62
2016-12-17T08:45:48.736Z,75.53
2016-12-17T08:46:58.258Z,75.81
2016-12-17T08:48:07.777Z,75.53
2016-12-17T08:49:17.310Z,75.62
2016-12-17T08:50:27.149Z,75.62
2016-12-17T08:51:36.320Z,75.62
2016-12-17T08:52:46.133Z,75.53
2016-12-17T08:53:55.654Z,75.43
2016-12-17T08:55:05.175Z,75.43
2016-12-17T08:56:14.983Z,75.72
2016-12-17T08:57:24.764Z,75.53
2016-12-17T08:58:34.542Z,75.34
2016-12-17T08:59:44.091Z,75.53
2016-12-17T09:00:53.891Z,75.66
2016-12-17T09:02:03.399Z,75.34
2016-12-17T09:03:13.230Z,75.09
2016-12-17T09:04:23.179Z,74.9
2016-12-17T09:05:33.005Z,75
2016-12-17T09:06:42.805Z,75.09
2016-12-17T09:07:52.307Z,74.9
2016-12-17T09:09:01.821Z,74.52
2016-12-17T09:10:11.292Z,75
2016-12-17T09:11:20.784Z,74.52
2016-12-17T09:12:30.574Z,74.33
2016-12-17T09:13:40.403Z,74.62
2016-12-17T09:14:50.241Z,74.43
2016-12-17T09:15:59.763Z,74.71
2016-12-17T09:17:09.320Z,74.24
2016-12-17T09:18:19.141Z,73.96
2016-12-17T09:19:28.651Z,74.15
2016-12-17T09:20:38.438Z,74.24
2016-12-17T09:21:48.225Z,74.15
2016-12-17T09:22:57.785Z,74.24
2016-12-17T09:24:07.095Z,74.15
2016-12-17T09:25:16.892Z,74.05
2016-12-17T09:26:26.372Z,73.77
2016-12-17T09:27:36.182Z,73.86
2016-12-17T09:28:45.689Z,73.86
2016-12-17T09:29:55.177Z,74.05
2016-12-17T09:31:04.957Z,73.96
2016-12-17T09:32:14.441Z,73.96
2016-12-17T09:33:24.286Z,73.96
2016-12-17T09:34:33.772Z,73.77
2016-12-17T09:35:42.639Z,74.33
2016-12-17T09:36:52.463Z,74.24
2016-12-17T09:38:01.958Z,74.24
2016-12-17T09:39:11.461Z,74.71
2016-12-17T09:40:20.984Z,75
2016-12-17T09:41:30.777Z,75.24
2016-12-17T09:42:39.941Z,75.43
2016-12-17T09:43:49.891Z,75.38
2016-12-17T09:44:59.764Z,75.19
2016-12-17T09:46:09.587Z,75.38
2016-12-17T09:47:19.396Z,75.19
2016-12-17T09:48:29.178Z,75.38
2016-12-17T09:49:38.656Z,75.19
2016-12-17T09:50:48.538Z,74.9
2016-12-17T09:51:58.334Z,75.28
2016-12-17T09:53:08.137Z,75.28
2016-12-17T09:54:17.925Z,74.71
2016-12-17T09:55:27.454Z,74.52
2016-12-17T09:56:37.240Z,74.09
2016-12-17T09:57:46.784Z,73.99
2016-12-17T09:58:56.569Z,73.14
2016-12-17T10:00:06.116Z,72.99
2016-12-17T10:01:15.979Z,72.23
2016-12-17T10:02:25.443Z,72.23
2016-12-17T10:03:34.927Z,71.41
2016-12-17T10:04:44.818Z,71.13
2016-12-17T10:05:54.712Z,70.59
2016-12-17T10:07:04.197Z,69.93
2016-12-17T10:08:13.680Z,70.15
2016-12-17T10:09:23.161Z,69.68
2016-12-17T10:10:32.642Z,68.96
2016-12-17T10:11:42.325Z,67.72
2016-12-17T10:12:52.348Z,67.57
2016-12-17T10:14:01.894Z,67.19
2016-12-17T10:15:11.732Z,65.99
2016-12-17T10:16:20.905Z,65.51
2016-12-17T10:17:30.695Z,64.56
2016-12-17T10:18:40.178Z,64.11
2016-12-17T10:19:49.366Z,63.54
2016-12-17T10:20:59.200Z,62.97
2016-12-17T10:22:09.029Z,62.4
2016-12-17T10:23:18.815Z,61.96
2016-12-17T10:24:28.755Z,61.38
2016-12-17T10:25:38.550Z,61.19
2016-12-17T10:26:48.383Z,60.72
2016-12-17T10:27:58.194Z,60.44
2016-12-17T10:29:07.855Z,60.27
2016-12-17T10:30:17.642Z,59.51
2016-12-17T10:31:27.182Z,59.89
2016-12-17T10:32:36.682Z,58.84
2016-12-17T10:33:46.233Z,58.56
2016-12-17T10:34:55.698Z,57.92
2016-12-17T10:36:05.520Z,56.97
2016-12-17T10:37:15.020Z,56.97
2016-12-17T10:38:24.835Z,56.68
2016-12-17T10:39:34.329Z,56.11
2016-12-17T10:40:44.175Z,56.4
2016-12-17T10:41:53.691Z,56.11
2016-12-17T10:43:03.519Z,55.54
2016-12-17T10:44:13.073Z,55.83
2016-12-17T10:45:22.867Z,55.26
2016-12-17T10:46:32.680Z,54.97
2016-12-17T10:47:42.531Z,54.59
2016-12-17T10:48:52.029Z,54.78
2016-12-17T10:50:01.737Z,54.49
2016-12-17T10:51:11.580Z,54.3
2016-12-17T10:52:21.443Z,54.3
2016-12-17T10:53:31.261Z,54.11
2016-12-17T10:54:40.749Z,53.38
2016-12-17T10:55:50.222Z,53.09
2016-12-17T10:56:59.716Z,53.19
2016-12-17T10:58:08.895Z,53
2016-12-17T10:59:18.688Z,53.06
2016-12-17T11:00:28.297Z,53.28
2016-12-17T11:01:38.090Z,52.8
2016-12-17T11:02:47.972Z,52.8
2016-12-17T11:03:57.824Z,52.52
2016-12-17T11:05:07.300Z,52.71
2016-12-17T11:06:16.877Z,52.8
2016-12-17T11:07:26.388Z,52.8
2016-12-17T11:08:36.321Z,52.33
2016-12-17T11:09:45.812Z,52.42
2016-12-17T11:10:55.290Z,52.33
2016-12-17T11:12:05.197Z,52.23
2016-12-17T11:13:15.065Z,52.14
2016-12-17T11:14:24.557Z,52.2
2016-12-17T11:15:34.052Z,52.4
2016-12-17T11:16:43.289Z,51.92
2016-12-17T11:17:52.779Z,52.3
2016-12-17T11:19:02.263Z,52.49
2016-12-17T11:20:11.462Z,53.06
2016-12-17T11:21:20.642Z,53.52
2016-12-17T11:22:30.179Z,54.47
2016-12-17T11:23:40.051Z,54.37
2016-12-17T11:24:49.844Z,54.47
2016-12-17T11:25:06.099Z,54.63
2016-12-17T11:26:15.706Z,54.63
2016-12-17T11:27:24.576Z,55.1
2016-12-17T11:28:34.061Z,54.91
2016-12-17T11:29:43.954Z,54.98
2016-12-17T11:30:53.870Z,56.03
2016-12-17T11:32:03.368Z,56.12
2016-12-17T11:33:13.272Z,56.41
2016-12-17T11:34:23.068Z,56.79
2016-12-17T11:35:32.570Z,56.7
2016-12-17T11:36:42.382Z,57.17
2016-12-17T11:37:51.568Z,57.74
2016-12-17T11:39:01.062Z,57.84
2016-12-17T11:40:10.536Z,58.31
2016-12-17T11:41:20.111Z,58.03
2016-12-17T11:42:29.628Z,57.93
2016-12-17T11:43:39.496Z,58.12
2016-12-17T11:44:49.026Z,58.5
2016-12-17T11:45:58.586Z,58.88
2016-12-17T11:47:08.437Z,58.79
2016-12-17T11:48:18.226Z,59.05
2016-12-17T11:49:27.732Z,59.61
2016-12-17T11:50:37.678Z,59.71
2016-12-17T11:51:47.183Z,59.9
2016-12-17T11:52:56.972Z,60.53
2016-12-17T11:54:06.456Z,60.82
2016-12-17T11:55:16.299Z,61.48
2016-12-17T11:56:26.089Z,61.68
2016-12-17T11:57:35.583Z,62.05
2016-12-17T11:58:45.387Z,62.24
2016-12-17T11:59:55.015Z,62.15
2016-12-17T12:01:04.807Z,62.78
2016-12-17T12:02:13.998Z,63.35
2016-12-17T12:03:23.551Z,63.35
2016-12-17T12:04:33.531Z,64.11
2016-12-17T12:05:43.070Z,64.02
2016-12-17T12:06:53.091Z,64.11
2016-12-17T12:08:02.907Z,64.59
2016-12-17T12:09:12.424Z,64.49
2016-12-17T12:10:21.919Z,64.87
2016-12-17T12:11:31.106Z,64.97
2016-12-17T12:12:41.005Z,65.35
2016-12-17T12:13:50.789Z,65.54
2016-12-17T12:15:00.636Z,65.54
2016-12-17T12:16:10.374Z,65.54
2016-12-17T12:17:19.234Z,66.11
2016-12-17T12:18:28.741Z,65.88
2016-12-17T12:19:37.929Z,65.88
2016-12-17T12:20:47.516Z,66.27
2016-12-17T12:21:57.015Z,66.3
2016-12-17T12:23:06.842Z,66.36
2016-12-17T12:24:16.621Z,67.06
2016-12-17T12:25:26.429Z,67.06
2016-12-17T12:26:35.907Z,66.74
2016-12-17T12:27:45.148Z,66.83
2016-12-17T12:28:54.692Z,67.44
2016-12-17T12:30:04.202Z,67.4
2016-12-17T12:31:13.729Z,67.44
2016-12-17T12:32:23.488Z,67.34
2016-12-17T12:33:32.972Z,67.15
2016-12-17T12:34:42.784Z,67.53
2016-12-17T12:35:52.439Z,67.53
2016-12-17T12:37:02.233Z,67.63
2016-12-17T12:38:12.026Z,67.44
2016-12-17T12:39:21.526Z,67.44
2016-12-17T12:40:30.701Z,67.44
2016-12-17T12:41:40.315Z,67.63
2016-12-17T12:42:50.130Z,67.53
2016-12-17T12:43:59.364Z,68.1
2016-12-17T12:45:08.564Z,67.82
2016-12-17T12:46:18.081Z,67.44
2016-12-17T12:47:27.598Z,67.63
2016-12-17T12:48:37.389Z,67.91
2016-12-17T12:49:46.645Z,67.82
2016-12-17T12:50:55.825Z,68.1
2016-12-17T12:52:04.996Z,68.35
2016-12-17T12:53:14.823Z,68.39
2016-12-17T12:54:24.405Z,68.16
2016-12-17T12:55:34.189Z,68.35
2016-12-17T12:56:44.026Z,68.26
2016-12-17T12:57:53.841Z,68.64
2016-12-17T12:59:03.334Z,68.73
2016-12-17T13:00:13.310Z,68.48
2016-12-17T13:01:22.477Z,68.54
2016-12-17T13:02:31.751Z,68.73
2016-12-17T13:03:41.267Z,68.67
2016-12-17T13:04:50.767Z,68.92
2016-12-17T13:05:59.990Z,68.96
2016-12-17T13:07:09.165Z,68.83
2016-12-17T13:08:18.651Z,68.92
2016-12-17T13:09:28.612Z,68.83
2016-12-17T13:10:38.395Z,69.3
2016-12-17T13:11:47.892Z,69.11
2016-12-17T13:12:57.116Z,69.11
2016-12-17T13:14:06.603Z,69.11
2016-12-17T13:15:16.497Z,69.59
2016-12-17T13:16:25.989Z,70.06
2016-12-17T13:17:35.605Z,69.87
2016-12-17T13:18:45.436Z,69.59
2016-12-17T13:19:54.961Z,69.78
2016-12-17T13:21:04.484Z,70.15
2016-12-17T13:22:13.968Z,70.06
2016-12-17T13:23:23.492Z,70.35
2016-12-17T13:24:33.306Z,70.25
2016-12-17T13:25:42.772Z,70.73
2016-12-17T13:26:52.571Z,70.73
2016-12-17T13:28:02.371Z,70.44
2016-12-17T13:29:12.183Z,70.73
2016-12-17T13:30:22.004Z,70.54
2016-12-17T13:31:31.550Z,70.82
2016-12-17T13:32:41.070Z,70.25
2016-12-17T13:33:50.898Z,70.15
2016-12-17T13:35:00.395Z,70.63
2016-12-17T13:36:10.204Z,70.63
2016-12-17T13:37:20.118Z,70.63
2016-12-17T13:38:29.912Z,70.63
2016-12-17T13:39:39.473Z,70.63
2016-12-17T13:40:48.962Z,70.63
2016-12-17T13:41:58.202Z,70.92
2016-12-17T13:43:07.717Z,71.01
2016-12-17T13:44:17.363Z,71.01
2016-12-17T13:45:27.163Z,71.26
2016-12-17T13:47:08.868Z,71.45
2016-12-17T13:48:18.674Z,71.36
2016-12-17T13:49:28.505Z,72.02
2016-12-17T13:50:38.324Z,71.92
2016-12-17T13:51:48.198Z,71.73
2016-12-17T13:52:58.062Z,71.92
2016-12-17T13:54:07.572Z,71.83
2016-12-17T13:55:17.090Z,72.02
2016-12-17T13:56:26.566Z,71.73
2016-12-17T13:57:36.375Z,71.92
2016-12-17T13:58:46.196Z,72.11
2016-12-17T13:59:56.089Z,71.92
2016-12-17T14:01:05.545Z,72.21
2016-12-17T14:02:15.541Z,72.21
2016-12-17T14:03:24.800Z,71.92
2016-12-17T14:04:34.644Z,72.02
2016-12-17T14:05:44.175Z,72.21
2016-12-17T14:06:53.673Z,72.02
2016-12-17T14:08:03.489Z,71.73
2016-12-17T14:09:13.041Z,72.59
2016-12-17T14:10:22.841Z,72.4
2016-12-17T14:11:32.336Z,72.49
2016-12-17T14:12:41.881Z,72.68
2016-12-17T14:13:51.708Z,72.68
2016-12-17T14:15:01.222Z,72.59
2016-12-17T14:16:11.056Z,72.59
2016-12-17T14:17:20.930Z,73.16
2016-12-17T14:18:30.405Z,73.07
2016-12-17T14:19:40.507Z,73.25
2016-12-17T14:20:50.325Z,73.22
2016-12-17T14:21:59.858Z,73.31
2016-12-17T14:23:09.353Z,73.22
2016-12-17T14:24:19.174Z,73.12
2016-12-17T14:25:28.986Z,73.6
2016-12-17T14:26:38.545Z,73.5
2016-12-17T14:27:48.398Z,73.5
2016-12-17T14:28:57.887Z,73.41
2016-12-17T14:30:07.720Z,73.88
2016-12-17T14:31:17.229Z,73.97
2016-12-17T14:32:26.450Z,73.88
2016-12-17T14:33:35.924Z,73.79
2016-12-17T14:34:45.752Z,73.69
2016-12-17T14:35:55.564Z,73.88
2016-12-17T14:37:05.343Z,74.07
2016-12-17T14:38:14.826Z,73.88
2016-12-17T14:39:24.680Z,73.97
2016-12-17T14:40:34.548Z,73.97
2016-12-17T14:41:43.723Z,73.97
2016-12-17T14:42:52.904Z,74.07
2016-12-17T14:44:02.083Z,74.07
2016-12-17T14:45:11.929Z,74.16
2016-12-17T14:46:21.754Z,74.35
2016-12-17T14:47:31.353Z,74.26
2016-12-17T14:48:41.209Z,74.16
2016-12-17T14:49:50.698Z,74.54
2016-12-17T14:51:00.635Z,74.73
2016-12-17T14:52:10.133Z,74.83
2016-12-17T14:53:19.946Z,74.73
2016-12-17T14:54:29.435Z,74.73
2016-12-17T14:55:38.615Z,74.54
2016-12-17T14:56:48.472Z,74.83
2016-12-17T14:57:58.009Z,74.73
2016-12-17T14:59:07.865Z,74.92
2016-12-17T15:00:17.346Z,75.21